Time;durP1;ratioP1;P1;durP2;ratioP2;P2;SDS_P1;SDS_P2;PMS_P1;PMS_P2;Temp;Humidity;BMP_temperature;BMP_pressure;BME280_temperature;BME280_humidity;BME280_pressure;Samples;Min_cycle;Max_cycle;Signal;HPM_P1;HPM_P2
2023/08/21 00:00:44;;;;;;;5.30;3.40;;;21.00;99.90;;;21.97;100.00;98738.97;5072034;28;20538;-77
2023/08/21 00:03:14;;;;;;;10.00;2.90;;;21.00;99.90;;;21.95;100.00;98733.06;5071171;28;21030;-78
2023/08/21 00:05:44;;;;;;;10.70;3.60;;;21.10;99.90;;;21.90;100.00;98735.66;5071866;28;20495;-77
2023/08/21 00:08:13;;;;;;;5.17;3.07;;;21.10;99.90;;;21.85;100.00;98730.22;5074105;28;20455;-78
2023/08/21 00:10:44;;;;;;;8.93;3.40;;;21.10;99.90;;;21.79;100.00;98731.19;5072700;28;20961;-77
2023/08/21 00:13:14;;;;;;;9.60;2.97;;;21.00;99.90;;;21.77;100.00;98723.44;5073544;28;20467;-77
2023/08/21 00:15:43;;;;;;;8.13;3.90;;;20.90;99.90;;;21.76;100.00;98729.03;5073030;28;20529;-77
2023/08/21 00:18:14;;;;;;;4.67;3.33;;;20.90;99.90;;;21.77;100.00;98711.97;5071353;28;20466;-77
2023/08/21 00:20:44;;;;;;;11.40;4.13;;;21.00;99.90;;;21.75;100.00;98717.56;5073785;28;20459;-77
2023/08/21 00:23:14;;;;;;;11.90;3.37;;;20.90;99.90;;;21.77;100.00;98718.09;5071888;28;20555;-79
2023/08/21 00:25:48;;;;;;;4.70;3.10;;;21.00;99.90;;;21.73;100.00;98710.88;5071541;28;20931;-77
2023/08/21 00:28:20;;;;;;;17.93;3.20;;;20.90;99.90;;;21.69;100.00;98712.38;5072135;28;20522;-77
2023/08/21 00:30:52;;;;;;;19.87;3.70;;;20.90;99.90;;;21.65;100.00;98708.59;5071578;28;20456;-77
2023/08/21 00:33:22;;;;;;;6.23;2.83;;;20.90;99.90;;;21.60;100.00;98717.28;5071883;28;20463;-77
2023/08/21 00:35:52;;;;;;;6.30;3.20;;;20.90;99.90;;;21.61;100.00;98715.44;5073109;28;20518;-77
2023/08/21 00:38:22;;;;;;;8.17;3.20;;;20.80;99.90;;;21.54;100.00;98718.25;5077104;28;20494;-77
2023/08/21 00:40:52;;;;;;;10.50;3.50;;;20.80;99.90;;;21.55;100.00;98710.03;5072421;28;20468;-77
2023/08/21 00:43:22;;;;;;;6.77;3.77;;;20.70;99.90;;;21.57;100.00;98713.28;5070628;28;20463;-78
2023/08/21 00:45:53;;;;;;;5.43;3.50;;;20.70;99.90;;;21.50;100.00;98714.47;5068176;28;21395;-77
2023/08/21 00:48:22;;;;;;;6.30;3.67;;;20.80;99.90;;;21.50;100.00;98704.63;5072958;28;20518;-77
2023/08/21 00:50:53;;;;;;;6.07;3.10;;;20.50;99.90;;;21.43;100.00;98713.81;5071095;28;20568;-77
2023/08/21 00:53:22;;;;;;;10.57;3.57;;;20.50;99.90;;;21.46;100.00;98708.81;5070856;28;20520;-77
2023/08/21 00:55:52;;;;;;;6.70;3.00;;;20.40;99.90;;;21.52;100.00;98707.84;5072539;28;20479;-77
2023/08/21 00:58:24;;;;;;;12.80;3.70;;;20.40;99.90;;;21.51;100.00;98716.09;5073781;28;20459;-77
2023/08/21 01:00:55;;;;;;;12.10;3.57;;;20.30;99.90;;;21.42;100.00;98706.88;5068579;28;20467;-77
2023/08/21 01:03:26;;;;;;;8.27;3.70;;;20.50;99.90;;;21.44;100.00;98704.78;5070886;28;20481;-77
2023/08/21 01:05:57;;;;;;;12.23;4.10;;;20.40;99.90;;;21.46;100.00;98708.00;5072073;28;20508;-77
2023/08/21 01:08:36;;;;;;;10.17;3.70;;;20.50;99.90;;;21.45;100.00;98701.09;5074187;28;20469;-77
2023/08/21 01:11:19;;;;;;;8.70;3.37;;;20.50;99.90;;;21.43;100.00;98709.31;5075328;28;20460;-77
2023/08/21 01:14:09;;;;;;;10.87;4.10;;;20.60;99.90;;;21.36;100.00;98705.97;5072120;28;20887;-77
2023/08/21 01:16:41;;;;;;;14.53;3.53;;;20.40;99.90;;;21.34;100.00;98710.75;5076620;28;20503;-77
2023/08/21 01:19:25;;;;;;;11.80;3.87;;;20.40;99.90;;;21.28;100.00;98717.00;5077518;28;20858;-77
2023/08/21 01:21:56;;;;;;;5.20;3.47;;;20.40;99.90;;;21.30;100.00;98714.94;5076470;28;20550;-77
2023/08/21 01:24:28;;;;;;;8.60;4.20;;;20.40;99.90;;;21.28;100.00;98717.00;5078966;28;20471;-77
2023/08/21 01:26:58;;;;;;;4.50;3.30;;;20.40;99.90;;;21.27;100.00;98712.75;5078870;28;20491;-77
2023/08/21 01:29:28;;;;;;;8.30;3.60;;;20.40;99.90;;;21.23;100.00;98719.59;5078151;28;20969;-77
2023/08/21 01:32:08;;;;;;;7.93;3.60;;;20.50;99.90;;;21.20;100.00;98719.25;5077704;28;20491;-78
2023/08/21 01:34:41;;;;;;;13.73;3.83;;;20.50;99.90;;;21.21;100.00;98718.22;5076923;28;20927;-77
2023/08/21 01:37:11;;;;;;;4.00;3.20;;;20.40;99.90;;;21.18;100.00;98721.34;5077573;28;20464;-78
2023/08/21 01:39:44;;;;;;;6.97;3.97;;;20.30;99.90;;;21.24;100.00;98725.72;5079208;28;20464;-77
2023/08/21 01:42:14;;;;;;;8.50;4.13;;;20.30;99.90;;;21.18;100.00;98716.81;5077677;28;20488;-77
2023/08/21 01:44:45;;;;;;;9.80;4.17;;;20.30;99.90;;;21.19;100.00;98713.13;5077486;28;20464;-78
2023/08/21 01:47:15;;;;;;;8.23;4.23;;;20.30;99.90;;;21.23;100.00;98718.78;5078185;28;20488;-77
2023/08/21 01:49:44;;;;;;;6.23;3.97;;;20.20;99.90;;;21.25;100.00;98722.00;5077306;28;20468;-77
2023/08/21 01:52:14;;;;;;;13.80;4.77;;;20.30;99.90;;;21.21;100.00;98712.91;5077758;28;20525;-77
2023/08/21 01:54:47;;;;;;;11.10;4.07;;;20.30;99.90;;;21.18;100.00;98716.00;5075979;28;20463;-77
2023/08/21 01:57:19;;;;;;;6.17;4.03;;;20.30;99.90;;;21.14;100.00;98718.34;5078653;28;21070;-77
2023/08/21 01:59:48;;;;;;;13.57;4.60;;;20.20;99.90;;;21.13;100.00;98723.91;5081292;28;20463;-78
2023/08/21 02:02:19;;;;;;;7.90;4.03;;;20.20;99.90;;;21.12;100.00;98723.09;5077326;28;20494;-78
2023/08/21 02:04:49;;;;;;;7.13;4.50;;;20.20;99.90;;;21.14;100.00;98715.69;5077253;28;20463;-77
2023/08/21 02:07:19;;;;;;;10.07;4.23;;;20.20;99.90;;;21.14;100.00;98718.34;5078966;28;20529;-77
2023/08/21 02:09:50;;;;;;;8.13;4.60;;;20.20;99.90;;;21.12;100.00;98722.28;5073223;28;20470;-77
2023/08/21 02:12:20;;;;;;;7.80;4.10;;;20.20;99.90;;;21.06;100.00;98718.72;5074636;28;20551;-77
2023/08/21 02:14:50;;;;;;;5.17;4.10;;;20.10;99.90;;;21.03;100.00;98719.19;5074739;28;21024;-78
2023/08/21 02:17:19;;;;;;;6.30;3.60;;;20.10;99.90;;;21.03;100.00;98719.19;5075468;28;21281;-78
2023/08/21 02:19:49;;;;;;;13.60;5.03;;;20.10;99.90;;;21.03;100.00;98719.19;5075126;28;20467;-77
2023/08/21 02:22:19;;;;;;;6.27;3.50;;;20.10;99.90;;;20.96;100.00;98714.00;5075176;28;21174;-78
2023/08/21 02:24:51;;;;;;;6.90;4.40;;;20.20;99.90;;;20.91;100.00;98716.56;5077656;28;20460;-77
2023/08/21 02:27:21;;;;;;;6.83;4.00;;;20.20;99.90;;;20.92;100.00;98715.53;5077151;28;20489;-78
2023/08/21 02:29:52;;;;;;;6.10;4.50;;;20.00;99.90;;;20.93;100.00;98711.03;5074053;28;20459;-78
2023/08/21 02:32:21;;;;;;;18.37;3.70;;;20.00;99.90;;;20.85;100.00;98719.38;5073658;28;20466;-77
2023/08/21 02:34:52;;;;;;;5.03;4.50;;;20.10;99.90;;;20.79;100.00;98713.13;5075125;28;20459;-78
2023/08/21 02:37:22;;;;;;;10.90;5.10;;;20.10;99.90;;;20.80;100.00;98720.06;5075969;28;20456;-77
2023/08/21 02:39:55;;;;;;;14.40;4.30;;;20.10;99.90;;;20.78;100.00;98714.19;5075309;28;20455;-77
2023/08/21 02:42:24;;;;;;;6.80;4.47;;;20.00;99.90;;;20.79;100.00;98712.34;5077762;28;20478;-77
2023/08/21 02:44:53;;;;;;;7.23;4.23;;;20.00;99.90;;;20.79;100.00;98715.00;5078048;28;20455;-77
2023/08/21 02:47:23;;;;;;;16.70;4.30;;;19.90;99.90;;;20.78;100.00;98716.84;5076338;28;20506;-77
2023/08/21 02:49:54;;;;;;;11.00;4.30;;;20.00;99.90;;;20.76;100.00;98721.56;5076686;28;20468;-77
2023/08/21 02:52:24;;;;;;;8.17;4.60;;;19.90;99.90;;;20.77;100.00;98714.41;5076194;28;20459;-77
2023/08/21 02:54:56;;;;;;;12.07;4.67;;;20.00;99.90;;;20.78;100.00;98718.69;5075546;28;20514;-77
2023/08/21 02:57:26;;;;;;;7.07;4.23;;;19.90;99.90;;;20.73;100.00;98714.06;5075419;28;20464;-78
2023/08/21 02:59:56;;;;;;;5.27;3.83;;;19.80;99.90;;;20.67;100.00;98716.88;5077460;28;20462;-77
2023/08/21 03:02:27;;;;;;;9.80;4.53;;;19.70;99.90;;;20.63;100.00;98713.06;5074092;28;20485;-78
2023/08/21 03:04:57;;;;;;;9.57;4.40;;;19.70;99.90;;;20.66;100.00;98712.59;5075502;28;20471;-78
2023/08/21 03:07:28;;;;;;;15.50;4.47;;;19.70;99.90;;;20.69;100.00;98712.16;5072646;28;20500;-77
2023/08/21 03:10:01;;;;;;;6.17;4.53;;;19.60;99.90;;;20.68;100.00;98714.00;5072870;28;20549;-80
2023/08/21 03:12:30;;;;;;;9.60;4.87;;;19.70;99.90;;;20.66;100.00;98718.72;5072858;28;20896;-77
2023/08/21 03:15:00;;;;;;;7.80;4.23;;;19.80;99.90;;;20.63;100.00;98719.19;5072392;28;20478;-78
2023/08/21 03:17:31;;;;;;;6.70;4.83;;;19.70;99.90;;;20.58;100.00;98719.88;5072680;28;20464;-77
2023/08/21 03:20:04;;;;;;;7.77;4.40;;;19.70;99.90;;;20.50;100.00;98720.25;5073382;28;21017;-77
2023/08/21 03:22:34;;;;;;;8.03;4.43;;;19.70;99.90;;;20.46;100.00;98719.13;5075995;28;20545;-78
2023/08/21 03:25:06;;;;;;;15.00;5.77;;;19.70;99.90;;;20.39;100.00;98715.78;5076208;28;20546;-78
2023/08/21 03:27:39;;;;;;;6.40;3.93;;;19.80;99.90;;;20.38;100.00;98716.00;5074200;28;21013;-76
2023/08/21 03:30:09;;;;;;;11.43;4.50;;;19.80;99.90;;;20.35;100.00;98711.97;5075452;28;20490;-76
2023/08/21 03:32:38;;;;;;;9.47;4.13;;;19.80;99.90;;;20.32;100.00;98717.75;5076518;28;20873;-76
2023/08/21 03:35:10;;;;;;;7.60;3.87;;;19.70;99.90;;;20.34;100.00;98709.56;5077214;28;20550;-76
2023/08/21 03:37:40;;;;;;;7.83;4.27;;;19.60;99.90;;;20.28;100.00;98710.47;5074849;28;20469;-76
2023/08/21 03:40:14;;;;;;;13.33;5.13;;;19.70;99.90;;;20.19;100.00;98712.66;5072362;28;20455;-76
2023/08/21 03:42:44;;;;;;;7.70;4.50;;;19.70;99.90;;;20.14;100.00;98709.88;5075608;28;20486;-76
2023/08/21 03:45:13;;;;;;;11.70;4.30;;;19.60;99.90;;;20.19;100.00;98707.34;5073072;28;20526;-76
2023/08/21 03:47:42;;;;;;;5.37;4.27;;;19.50;99.90;;;20.19;100.00;98701.22;5072840;28;20495;-77
2023/08/21 03:50:13;;;;;;;7.30;5.00;;;19.50;99.90;;;20.28;100.00;98705.97;5073840;28;20472;-77
2023/08/21 03:52:43;;;;;;;9.10;4.60;;;19.40;99.90;;;20.30;100.00;98703.91;5073746;28;20885;-77
2023/08/21 03:55:16;;;;;;;11.67;5.00;;;19.40;99.90;;;20.24;100.00;98709.28;5075849;28;20526;-76
2023/08/21 03:57:45;;;;;;;17.20;5.10;;;19.50;99.90;;;20.17;100.00;98704.09;5072872;28;21433;-77
2023/08/21 04:00:16;;;;;;;5.30;4.50;;;19.50;99.90;;;20.14;100.00;98717.84;5074835;28;21146;-76
2023/08/21 04:02:46;;;;;;;12.03;4.30;;;19.50;99.90;;;20.16;100.00;98707.81;5073932;28;20456;-77
2023/08/21 04:05:16;;;;;;;7.10;4.60;;;19.40;99.90;;;20.16;100.00;98710.47;5074823;28;20476;-77
2023/08/21 04:07:45;;;;;;;17.80;10.77;;;19.40;99.90;;;20.21;100.00;98712.41;5075545;28;21784;-80
2023/08/21 04:10:16;;;;;;;13.40;5.20;;;19.40;99.90;;;20.20;100.00;98714.25;5075043;28;20455;-76
2023/08/21 04:12:46;;;;;;;7.03;4.77;;;19.40;99.90;;;20.19;100.00;98710.00;5069208;28;20464;-77
2023/08/21 04:15:17;;;;;;;10.03;4.53;;;19.30;99.90;;;20.19;100.00;98717.97;5074390;28;20502;-77
2023/08/21 04:17:45;;;;;;;8.20;5.23;;;19.40;99.90;;;20.09;100.00;98717.75;5073070;28;20463;-76
2023/08/21 04:20:15;;;;;;;9.13;4.77;;;19.50;99.90;;;20.06;100.00;98720.84;5075689;28;20853;-77
2023/08/21 04:22:44;;;;;;;8.27;5.20;;;19.40;99.90;;;19.98;100.00;98711.38;5073742;28;20464;-77
2023/08/21 04:25:12;;;;;;;6.37;4.93;;;19.40;99.90;;;19.93;100.00;98708.59;5067178;28;20463;-78
2023/08/21 04:27:43;;;;;;;13.13;5.70;;;19.40;99.90;;;19.91;100.00;98725.81;5069415;28;20578;-79
2023/08/21 04:30:15;;;;;;;10.63;5.33;;;19.30;99.90;;;19.87;100.00;98724.66;5068317;28;21567;-76
2023/08/21 04:32:45;;;;;;;9.03;5.00;;;19.30;99.90;;;19.95;100.00;98721.66;5073344;28;20980;-76
2023/08/21 04:35:16;;;;;;;5.57;4.40;;;19.20;99.90;;;19.98;100.00;98726.50;5069943;28;20464;-76
2023/08/21 04:37:48;;;;;;;18.43;5.70;;;19.20;99.90;;;19.97;100.00;98731.00;5071498;28;20473;-76
2023/08/21 04:40:20;;;;;;;6.80;5.27;;;19.20;99.90;;;20.01;100.00;98723.38;5070303;28;20468;-76
2023/08/21 04:42:52;;;;;;;8.17;5.33;;;19.10;99.90;;;19.93;100.00;98731.69;5070087;28;21083;-76
2023/08/21 04:45:22;;;;;;;7.70;5.50;;;19.20;99.90;;;19.93;100.00;98731.69;5068892;28;20946;-76
2023/08/21 04:47:51;;;;;;;10.10;5.47;;;19.20;99.90;;;19.99;100.00;98733.44;5068784;28;20502;-78
2023/08/21 04:50:23;;;;;;;8.27;5.57;;;19.10;99.90;;;19.99;100.00;98736.09;5070061;28;20462;-76
2023/08/21 04:52:54;;;;;;;11.30;5.00;;;19.00;99.90;;;20.01;100.00;98726.84;5070967;28;20473;-76
2023/08/21 04:55:24;;;;;;;16.00;5.97;;;19.00;99.90;;;20.02;100.00;98732.97;5075843;28;20868;-77
2023/08/21 04:57:58;;;;;;;11.70;5.67;;;19.00;99.90;;;19.96;100.00;98736.53;5075624;28;20451;-76
2023/08/21 05:00:28;;;;;;;11.67;5.77;;;19.10;99.90;;;19.91;100.00;98744.38;5076559;28;20468;-77
2023/08/21 05:02:58;;;;;;;16.73;6.30;;;19.20;99.90;;;19.88;100.00;98743.00;5073088;28;20464;-76
2023/08/21 05:05:29;;;;;;;10.37;5.40;;;19.20;99.90;;;19.88;100.00;98742.19;5075390;28;21066;-78
2023/08/21 05:08:00;;;;;;;8.37;5.20;;;19.20;99.90;;;19.86;100.00;98734.44;5078403;28;20514;-77
2023/08/21 05:10:29;;;;;;;11.50;5.53;;;19.10;99.90;;;19.88;100.00;98742.19;5077614;28;20932;-77
2023/08/21 05:13:00;;;;;;;7.63;5.33;;;19.10;99.90;;;19.92;100.00;98743.38;5077688;28;20468;-77
2023/08/21 05:15:30;;;;;;;8.60;6.00;;;19.10;99.90;;;19.98;100.00;98745.09;5077736;28;20503;-77
2023/08/21 05:18:00;;;;;;;10.70;5.43;;;19.10;99.90;;;20.01;100.00;98739.31;5077554;28;20468;-78
2023/08/21 05:20:30;;;;;;;6.57;5.03;;;19.00;99.90;;;20.01;100.00;98741.97;5076375;28;20493;-77
2023/08/21 05:23:00;;;;;;;12.37;6.20;;;19.10;99.90;;;20.05;100.00;98743.13;5078613;28;20464;-77
2023/08/21 05:25:30;;;;;;;10.63;4.87;;;19.10;99.90;;;20.05;100.00;98749.25;5076960;28;20514;-77
2023/08/21 05:28:00;;;;;;;11.23;5.50;;;19.00;99.90;;;20.08;100.00;98742.66;5072147;28;20486;-77
2023/08/21 05:30:30;;;;;;;11.23;5.27;;;19.10;99.90;;;20.05;100.00;98748.44;5072506;28;20456;-77
2023/08/21 05:33:00;;;;;;;11.30;7.07;;;19.10;99.90;;;20.10;100.00;98745.88;5074439;28;20474;-76
2023/08/21 05:35:30;;;;;;;11.43;6.37;;;19.10;99.90;;;20.12;100.00;98746.47;5073592;28;20466;-77
2023/08/21 05:38:01;;;;;;;16.90;6.10;;;19.10;99.90;;;20.15;100.00;98751.34;5071850;28;20537;-77
2023/08/21 05:40:32;;;;;;;9.53;5.60;;;19.10;99.90;;;20.17;100.00;98746.59;5079197;28;21022;-77
2023/08/21 05:43:03;;;;;;;15.87;6.10;;;19.20;99.90;;;20.21;100.00;98752.25;5076744;28;21012;-79
2023/08/21 05:45:32;;;;;;;21.53;5.70;;;19.10;99.90;;;20.19;100.00;98752.50;5078566;28;20950;-77
2023/08/21 05:48:01;;;;;;;21.70;6.30;;;19.00;99.90;;;20.20;100.00;98762.06;5079850;28;20608;-77
2023/08/21 05:50:31;;;;;;;8.40;6.60;;;19.00;99.90;;;20.23;100.00;98761.63;5079626;28;20973;-78
2023/08/21 05:53:01;;;;;;;10.80;6.23;;;19.20;99.90;;;20.26;100.00;98761.16;5077471;28;20459;-78
2023/08/21 05:55:31;;;;;;;7.70;5.87;;;19.20;99.90;;;20.25;100.00;98762.19;5079629;28;20484;-77
2023/08/21 05:58:02;;;;;;;9.70;5.30;;;19.20;99.90;;;20.27;100.00;98761.97;5079037;28;20530;-77
2023/08/21 06:00:31;;;;;;;12.63;6.10;;;19.10;99.90;;;20.28;100.00;98763.59;5078357;28;20461;-76
2023/08/21 06:03:01;;;;;;;12.17;7.43;;;19.20;99.90;;;20.34;100.00;98763.47;5077082;28;20464;-77
2023/08/21 06:05:32;;;;;;;11.90;6.40;;;19.30;99.90;;;20.39;100.00;98760.94;5080040;28;20499;-78
2023/08/21 06:08:02;;;;;;;12.30;6.57;;;19.30;99.90;;;20.44;100.00;98753.06;5079381;28;20490;-77
2023/08/21 06:10:33;;;;;;;14.57;6.70;;;19.40;99.90;;;20.48;100.00;98759.53;5079666;28;20517;-78
2023/08/21 06:13:05;;;;;;;8.30;6.00;;;19.40;99.90;;;20.49;100.00;98765.66;5078542;28;20459;-78
2023/08/21 06:15:35;;;;;;;16.07;6.60;;;19.40;99.90;;;20.50;100.00;98765.44;5077779;28;20963;-77
2023/08/21 06:18:05;;;;;;;7.50;6.00;;;19.40;99.90;;;20.55;100.00;98764.72;5079879;28;20468;-77
2023/08/21 06:20:36;;;;;;;13.90;7.03;;;19.50;99.90;;;20.59;100.00;98766.69;5078510;28;20462;-77
2023/08/21 06:23:06;;;;;;;14.10;5.97;;;19.50;99.90;;;20.64;100.00;98768.66;5077931;28;20447;-78
2023/08/21 06:25:35;;;;;;;8.20;5.03;;;19.60;99.90;;;20.68;100.00;98764.50;5076534;28;20460;-78
2023/08/21 06:28:07;;;;;;;8.90;5.90;;;19.60;99.90;;;20.72;100.00;98770.94;5078929;28;20818;-78
2023/08/21 06:30:38;;;;;;;13.60;4.90;;;19.60;99.90;;;20.76;100.00;98764.13;5077954;28;20487;-78
2023/08/21 06:33:07;;;;;;;8.33;5.93;;;19.70;99.90;;;20.80;100.00;98767.13;5076863;28;20531;-78
2023/08/21 06:35:38;;;;;;;10.97;6.07;;;19.80;99.90;;;20.83;100.00;98763.97;5077490;28;20492;-77
2023/08/21 06:38:09;;;;;;;10.03;6.03;;;19.80;99.90;;;20.89;100.00;98768.38;5077372;28;20463;-77
2023/08/21 06:40:39;;;;;;;6.57;5.40;;;19.90;99.90;;;20.94;100.00;98771.13;5077521;28;20545;-78
2023/08/21 06:43:10;;;;;;;22.60;5.60;;;19.90;99.90;;;20.97;100.00;98760.81;5079442;28;20459;-78
2023/08/21 06:45:42;;;;;;;9.33;5.90;;;20.00;99.90;;;21.01;100.00;98769.13;5078691;28;20457;-77
2023/08/21 06:48:13;;;;;;;8.80;6.60;;;20.00;99.90;;;21.04;100.00;98764.16;5078125;28;20547;-78
2023/08/21 06:50:42;;;;;;;7.53;4.97;;;20.10;99.90;;;21.08;100.00;98759.19;5078948;28;20856;-78
2023/08/21 06:53:12;;;;;;;11.20;5.60;;;20.10;99.90;;;21.12;100.00;98757.69;5079482;28;20974;-78
2023/08/21 06:55:43;;;;;;;10.93;5.50;;;20.10;99.90;;;21.14;100.00;98755.59;5078506;28;20551;-78
2023/08/21 06:58:13;;;;;;;10.20;6.40;;;20.10;99.90;;;21.17;100.00;98757.81;5076691;28;20505;-78
2023/08/21 07:00:44;;;;;;;9.43;5.50;;;20.20;99.90;;;21.20;100.00;98757.31;5078099;28;20540;-78
2023/08/21 07:03:13;;;;;;;9.63;5.10;;;20.20;99.90;;;21.26;100.00;98758.22;5078542;28;21000;-78
2023/08/21 07:05:48;;;;;;;8.40;5.60;;;20.30;99.90;;;21.30;100.00;98756.69;5077991;28;20471;-77
2023/08/21 07:08:18;;;;;;;11.77;5.70;;;20.30;99.90;;;21.34;100.00;98748.00;5079210;28;20467;-77
2023/08/21 07:10:50;;;;;;;20.57;5.30;;;20.40;99.90;;;21.39;100.00;98749.94;5077283;28;20460;-78
2023/08/21 07:13:21;;;;;;;7.70;6.20;;;20.40;99.90;;;21.43;100.00;98746.56;5078583;28;20459;-78
2023/08/21 07:15:55;;;;;;;13.77;6.40;;;20.50;99.90;;;21.47;100.00;98742.38;5075685;28;20471;-77
2023/08/21 07:18:27;;;;;;;8.47;5.67;;;20.50;99.90;;;21.52;100.00;98739.78;5075997;28;20540;-78
2023/08/21 07:20:56;;;;;;;17.87;6.23;;;20.60;99.90;;;21.56;100.00;98746.25;5076405;28;20513;-77
2023/08/21 07:23:27;;;;;;;11.20;5.70;;;20.60;99.90;;;21.60;100.00;98743.91;5075649;28;20476;-78
2023/08/21 07:25:58;;;;;;;8.73;5.17;;;20.70;99.90;;;21.64;100.00;98745.06;5075775;28;20609;-78
2023/08/21 07:28:30;;;;;;;7.60;5.73;;;20.70;99.90;;;21.69;100.00;98744.34;5076438;28;20455;-78
2023/08/21 07:31:00;;;;;;;8.27;5.77;;;20.80;99.90;;;21.74;100.00;98739.09;5076109;28;21036;-78
2023/08/21 07:33:31;;;;;;;7.27;4.63;;;20.80;99.90;;;21.79;100.00;98741.84;5075403;28;20487;-78
2023/08/21 07:36:04;;;;;;;12.60;5.23;;;20.90;99.90;;;21.84;100.00;98739.25;5076859;28;20499;-77
2023/08/21 07:38:34;;;;;;;6.40;4.90;;;20.90;99.90;;;21.89;100.00;98739.34;5079051;28;20542;-78
2023/08/21 07:41:05;;;;;;;10.40;5.20;;;21.00;99.90;;;21.95;100.00;98738.41;5079089;28;20464;-78
2023/08/21 07:43:37;;;;;;;10.70;5.67;;;21.00;99.90;;;22.01;100.00;98737.41;5077799;28;20518;-78
2023/08/21 07:46:07;;;;;;;8.50;4.90;;;21.10;99.90;;;22.07;100.00;98741.78;5077636;28;21329;-79
2023/08/21 07:48:36;;;;;;;13.97;5.40;;;21.20;99.90;;;22.12;100.00;98739.19;5077622;28;20562;-77
2023/08/21 07:51:05;;;;;;;10.03;4.97;;;21.20;99.90;;;22.18;100.00;98743.53;5076655;28;20804;-79
2023/08/21 07:53:34;;;;;;;8.77;4.90;;;21.30;99.90;;;22.23;100.00;98738.28;5077504;28;20554;-78
2023/08/21 07:56:06;;;;;;;7.73;4.90;;;21.30;99.90;;;22.28;100.00;98741.03;5078014;28;20455;-77
2023/08/21 07:58:38;;;;;;;10.43;4.80;;;21.40;99.90;;;22.34;100.00;98748.03;5079583;28;20568;-78
2023/08/21 08:01:07;;;;;;;12.70;5.47;;;21.50;99.90;;;22.40;100.00;98741.72;5077125;28;20501;-78
2023/08/21 08:03:37;;;;;;;11.80;5.60;;;21.50;99.90;;;22.47;100.00;98746.88;5076607;28;20458;-78
2023/08/21 08:06:06;;;;;;;6.97;5.10;;;21.60;99.90;;;22.53;100.00;98735.22;5078689;28;20456;-78
2023/08/21 08:08:37;;;;;;;12.07;5.60;;;21.70;99.90;;;22.59;100.00;98745.69;5074717;28;20525;-78
2023/08/21 08:11:06;;;;;;;6.93;5.00;;;21.70;99.90;;;22.65;100.00;98737.78;5075173;28;20492;-78
2023/08/21 08:13:38;;;;;;;6.53;5.20;;;21.80;99.90;;;22.70;100.00;98732.56;5075759;28;20459;-77
2023/08/21 08:16:09;;;;;;;8.00;5.30;;;21.90;99.90;;;22.77;100.00;98741.19;5073436;28;20559;-78
2023/08/21 08:18:38;;;;;;;9.07;4.70;;;21.90;99.90;;;22.83;100.00;98741.00;5074111;28;20463;-78
2023/08/21 08:21:10;;;;;;;7.67;5.27;;;22.00;99.90;;;22.89;100.00;98739.19;5074825;28;20459;-78
2023/08/21 08:23:40;;;;;;;11.83;4.90;;;22.10;99.90;;;22.97;100.00;98738.75;5074829;28;20475;-78
2023/08/21 08:26:10;;;;;;;8.70;4.63;;;22.20;99.90;;;23.02;100.00;98738.78;5074085;28;20931;-78
2023/08/21 08:28:42;;;;;;;6.60;4.10;;;22.30;99.90;;;23.08;100.00;98737.81;5077222;28;20539;-78
2023/08/21 08:31:17;;;;;;;5.33;4.70;;;22.30;99.90;;;23.14;100.00;98736.00;5080664;28;20522;-78
2023/08/21 08:33:48;;;;;;;8.70;4.50;;;22.40;99.90;;;23.21;100.00;98729.41;5082708;28;20976;-78
2023/08/21 08:36:17;;;;;;;9.47;4.33;;;22.40;99.90;;;23.26;100.00;98726.78;5081399;28;20502;-78
2023/08/21 08:38:47;;;;;;;11.03;4.83;;;22.50;99.90;;;23.30;100.00;98725.22;5080662;28;20467;-78
2023/08/21 08:41:28;;;;;;;5.70;4.00;;;22.60;99.90;;;23.36;100.00;98718.84;5079771;28;20464;-78
2023/08/21 08:44:00;;;;;;;5.13;4.00;;;22.60;99.90;;;23.42;100.00;98723.25;5078663;28;21024;-78
2023/08/21 08:46:31;;;;;;;9.23;3.50;;;22.60;99.90;;;23.49;100.00;98726.50;5082685;28;20464;-78
2023/08/21 08:49:03;;;;;;;7.20;4.60;;;22.70;99.90;;;23.52;100.00;98718.00;5080283;28;20467;-79
2023/08/21 08:51:38;;;;;;;13.33;3.93;;;22.80;99.90;;;23.59;100.00;98727.66;5080132;28;20566;-78
2023/08/21 08:54:10;;;;;;;7.03;3.50;;;22.90;99.90;;;23.64;100.00;98720.47;5083243;28;20483;-78
2023/08/21 08:56:39;;;;;;;5.43;3.80;;;23.00;99.90;;;23.69;100.00;98728.53;5081674;28;20835;-78
2023/08/21 08:59:12;;;;;;;2.87;2.17;;;23.00;99.90;;;23.75;100.00;98716.81;5078435;28;20459;-78
2023/08/21 09:01:43;;;;;;;3.30;1.70;;;23.10;99.90;;;23.79;100.00;98733.97;5079147;28;21269;-78
2023/08/21 09:04:13;;;;;;;4.77;2.20;;;23.10;99.90;;;23.83;100.00;98719.03;5078227;28;21051;-78
2023/08/21 09:06:43;;;;;;;3.83;1.73;;;23.20;99.90;;;23.90;100.00;98729.50;5078748;28;20494;-79
2023/08/21 09:09:14;;;;;;;3.37;2.07;;;23.30;99.90;;;23.96;100.00;98723.13;5078137;28;20481;-78
2023/08/21 09:11:48;;;;;;;11.77;2.20;;;23.30;99.90;;;24.03;100.00;98727.19;5077890;28;20502;-78
2023/08/21 09:14:28;;;;;;;2.73;1.63;;;23.30;99.90;;;24.08;100.00;98726.44;5078368;28;20470;-77
2023/08/21 09:17:03;;;;;;;4.37;2.17;;;23.40;99.90;;;24.16;100.00;98722.50;5080558;28;20518;-78
2023/08/21 09:19:33;;;;;;;2.70;2.20;;;23.50;99.90;;;24.19;100.00;98717.44;5080585;28;20466;-78
2023/08/21 09:22:12;;;;;;;3.50;2.27;;;23.50;99.90;;;24.25;100.00;98716.41;5079766;28;20464;-78
2023/08/21 09:25:05;;;;;;;6.70;2.10;;;23.60;99.90;;;24.31;100.00;98712.69;5079119;28;20452;-78
2023/08/21 09:27:35;;;;;;;2.50;1.90;;;23.60;99.90;;;24.37;100.00;98718.88;5080505;28;20961;-78
2023/08/21 09:30:12;;;;;;;4.60;1.70;;;23.70;99.90;;;24.46;100.00;98718.13;5079520;28;20602;-78
2023/08/21 09:32:56;;;;;;;2.73;1.80;;;23.80;99.90;;;24.53;100.00;98708.00;5079664;28;20971;-78
2023/08/21 09:35:26;;;;;;;6.20;2.73;;;23.90;99.90;;;24.62;100.00;98710.97;5080250;28;20516;-78
2023/08/21 09:37:56;;;;;;;4.47;2.13;;;24.00;99.90;;;24.69;100.00;98710.72;5077760;28;20474;-78
2023/08/21 09:40:25;;;;;;;9.20;5.63;;;24.10;99.90;;;24.75;100.00;98709.69;5080217;28;20841;-78
2023/08/21 09:42:57;;;;;;;3.27;2.23;;;24.10;99.90;;;24.89;100.00;98705.47;5081853;28;20461;-77
2023/08/21 09:45:29;;;;;;;3.00;2.00;;;24.30;99.90;;;24.99;100.00;98713.56;5080227;28;20465;-78
2023/08/21 09:48:00;;;;;;;3.20;2.10;;;24.40;99.90;;;25.03;100.00;98715.41;5081181;28;20460;-80
2023/08/21 09:50:31;;;;;;;2.70;1.70;;;24.40;99.90;;;25.12;100.00;98717.59;5077609;28;21043;-78
2023/08/21 09:53:02;;;;;;;1.80;1.40;;;24.50;99.90;;;25.17;100.00;98713.03;5077427;28;20540;-78
2023/08/21 09:55:34;;;;;;;3.03;1.87;;;24.60;99.90;;;25.29;100.00;98718.97;5077925;28;20471;-78
2023/08/21 09:58:04;;;;;;;4.50;1.93;;;24.70;99.90;;;25.41;100.00;98724.88;5078335;28;20460;-78
2023/08/21 10:00:39;;;;;;;1.90;1.50;;;24.80;99.90;;;25.56;100.00;98712.59;5077729;28;20470;-77
2023/08/21 10:03:12;;;;;;;5.77;1.93;;;24.90;99.90;;;25.70;100.00;98714.47;5077525;28;20459;-80
2023/08/21 10:05:43;;;;;;;3.90;1.50;;;25.10;99.90;;;25.87;100.00;98706.97;5079322;28;20464;-78
2023/08/21 10:08:15;;;;;;;2.30;1.30;;;25.20;99.90;;;25.94;100.00;98710.16;5078947;28;20448;-79
2023/08/21 10:10:44;;;;;;;7.07;1.60;;;25.30;99.90;;;26.01;100.00;98704.53;5078911;28;20643;-78
2023/08/21 10:13:14;;;;;;;2.80;1.70;;;25.30;99.90;;;26.09;100.00;98709.34;5079282;28;20463;-78
2023/08/21 10:15:47;;;;;;;2.63;1.60;;;25.40;99.90;;;26.14;100.00;98698.59;5081558;28;20486;-78
2023/08/21 10:18:23;;;;;;;2.30;1.70;;;25.60;99.90;;;26.23;100.00;98706.94;5078915;28;20468;-78
2023/08/21 10:20:54;;;;;;;4.30;1.60;;;25.60;99.90;;;26.32;100.00;98707.97;5078007;28;20466;-78
2023/08/21 10:23:29;;;;;;;5.10;1.73;;;25.70;99.90;;;26.40;100.00;98700.19;5079281;28;20456;-78
2023/08/21 10:26:02;;;;;;;2.70;1.70;;;25.80;99.90;;;26.49;100.00;98695.03;5079067;28;20566;-78